Kathleen Dupre — WDI3806 — position and weather

sailwx.info

Track history (hours):
 
Tides and Currents Weather Stations Pressure Air Temp Water Temp Dewpoint Dewpoint Depression Visibility Wind Speed Wind Dir Waves Ship Positions

Kathleen Dupre

Owner: Dupre Marine Transportation, LCC, Houma, LA. More information available from US FCC via Universal Licensing System and Coast Guard Vessel Documentation Center.

Last reported at 2017-Nov-24 03:30 UTC. Time now 2017-Nov-24 03:45 UTC.
Position N 30°05' W 093°20'.

Length 14 m; draft 3 m.

Type: . MMSI: 367692120.

Date/timePositionNaut miles runAvg speedWind from/ knotsBaromVisibWave heightAir tempDewpointWater temp
2017-Nov-24 03:30N 30°05' W 093°20'1 2.7
2017-Nov-24 03:00N 30°04' W 093°21'1 2.5
2017-Nov-24 02:30N 30°04' W 093°22'1 2.0
2017-Nov-24 02:00N 30°04' W 093°24'0 0.1
2017-Nov-24 01:30N 30°04' W 093°23'0 0.0
2017-Nov-24 01:00N 30°04' W 093°23'0 0.1
2017-Nov-24 00:30N 30°04' W 093°24'0 0.3
2017-Nov-24 00:00N 30°04' W 093°23'0 0.4
2017-Nov-23 23:27N 30°04' W 093°24'0 0.4
2017-Nov-23 23:00N 30°04' W 093°24'1 2.1
2017-Nov-23 22:30N 30°04' W 093°25'1 1.3
2017-Nov-23 21:59N 30°04' W 093°26'0 0.0
2017-Nov-23 21:29N 30°04' W 093°26'0 0.0
2017-Nov-23 20:59N 30°04' W 093°26'0 0.0
2017-Nov-23 20:29N 30°04' W 093°26'0 0.0
2017-Nov-23 19:59N 30°04' W 093°26'0 0.1
2017-Nov-23 19:29N 30°04' W 093°26'1 2.3
2017-Nov-23 19:00N 30°04' W 093°27'2 3.9
2017-Nov-23 18:30N 30°04' W 093°29'2 4.1
2017-Nov-23 18:00N 30°04' W 093°32'3 4.6
2017-Nov-23 17:24N 30°04' W 093°35'75 3.9
2017-Nov-22 21:56N 29°31' W 094°53'3 6.0
2017-Nov-22 21:31N 29°33' W 094°55'3 6.0
2017-Nov-22 21:00N 29°36' W 094°57'3 6.1
2017-Nov-22 20:31N 29°39' W 094°58'3 6.4
2017-Nov-22 20:00N 29°42' W 094°60'3 5.3
2017-Nov-22 19:29N 29°44' W 095°02'  
2017-Nov-17 21:35N 29°46' W 095°04'1 5.8
2017-Nov-17 21:30N 29°46' W 095°05'0 0.0
2017-Nov-17 12:36N 29°46' W 095°05'1 0.1
2017-Nov-17 02:18N 29°46' W 095°04'0 0.0
2017-Nov-17 02:00N 29°46' W 095°04'0 0.0
2017-Nov-16 02:31N 29°46' W 095°04'0 0.8
2017-Nov-16 02:29N 29°46' W 095°04'0 0.0
2017-Nov-15 21:36N 29°46' W 095°04'0 0.0
2017-Nov-15 11:20N 29°46' W 095°04'0 0.0
2017-Nov-15 10:14N 29°46' W 095°04'0 0.0
2017-Nov-15 09:08N 29°46' W 095°04'0 0.0
2017-Nov-15 08:59N 29°46' W 095°04'0 0.0
2017-Nov-15 07:23N 29°46' W 095°04'0 0.0
2017-Nov-15 05:20N 29°46' W 095°04'0 0.0
2017-Nov-15 04:23N 29°46' W 095°04'0 0.0
2017-Nov-15 03:32N 29°46' W 095°04'0 0.0
2017-Nov-15 03:05N 29°46' W 095°04'0 0.0
2017-Nov-15 02:56N 29°46' W 095°04'0 0.0
2017-Nov-15 02:14N 29°46' W 095°04'0 0.0
2017-Nov-14 18:40N 29°46' W 095°04'0 0.7
2017-Nov-14 17:57N 29°46' W 095°05'1 0.1
2017-Nov-14 10:48N 29°46' W 095°04'0 0.0
2017-Nov-14 10:25N 29°46' W 095°04'0 0.0
2017-Nov-14 09:30N 29°46' W 095°04'0 0.0
2017-Nov-14 08:54N 29°46' W 095°04'0 0.0
2017-Nov-14 08:16N 29°46' W 095°04'0 0.0
2017-Nov-14 07:55N 29°46' W 095°04'0 0.0
2017-Nov-14 07:29N 29°46' W 095°04'0 0.0
2017-Nov-14 06:52N 29°46' W 095°04'0 0.0
2017-Nov-14 06:26N 29°46' W 095°04'0 0.0
2017-Nov-14 05:03N 29°46' W 095°04'0 0.0
2017-Nov-14 04:59N 29°46' W 095°04'0 0.0
2017-Nov-14 04:28N 29°46' W 095°04'0 0.0
2017-Nov-14 03:53N 29°46' W 095°04'  
Track history (hours):
 
Tides and Currents Weather Stations Pressure Air Temp Water Temp Dewpoint Dewpoint Depression Visibility Wind Speed Wind Dir Waves Ship Positions

Kathleen Dupre

Owner: Dupre Marine Transportation, LCC, Houma, LA. More information available from US FCC via Universal Licensing System and Coast Guard Vessel Documentation Center.

Last reported at 2017-Nov-24 03:30 UTC. Time now 2017-Nov-24 03:45 UTC.
Position N 30°05' W 093°20'.

Length 14 m; draft 3 m.

Type: . MMSI: 367692120.

Date/timePositionNaut miles runAvg speedWind from/ knotsBaromVisibWave heightAir tempDewpointWater temp
2017-Nov-24 03:30N 30°05' W 093°20'1 2.7
2017-Nov-24 03:00N 30°04' W 093°21'1 2.5
2017-Nov-24 02:30N 30°04' W 093°22'1 2.0
2017-Nov-24 02:00N 30°04' W 093°24'0 0.1
2017-Nov-24 01:30N 30°04' W 093°23'0 0.0
2017-Nov-24 01:00N 30°04' W 093°23'0 0.1
2017-Nov-24 00:30N 30°04' W 093°24'0 0.3
2017-Nov-24 00:00N 30°04' W 093°23'0 0.4
2017-Nov-23 23:27N 30°04' W 093°24'0 0.4
2017-Nov-23 23:00N 30°04' W 093°24'1 2.1
2017-Nov-23 22:30N 30°04' W 093°25'1 1.3
2017-Nov-23 21:59N 30°04' W 093°26'0 0.0
2017-Nov-23 21:29N 30°04' W 093°26'0 0.0
2017-Nov-23 20:59N 30°04' W 093°26'0 0.0
2017-Nov-23 20:29N 30°04' W 093°26'0 0.0
2017-Nov-23 19:59N 30°04' W 093°26'0 0.1
2017-Nov-23 19:29N 30°04' W 093°26'1 2.3
2017-Nov-23 19:00N 30°04' W 093°27'2 3.9
2017-Nov-23 18:30N 30°04' W 093°29'2 4.1
2017-Nov-23 18:00N 30°04' W 093°32'3 4.6
2017-Nov-23 17:24N 30°04' W 093°35'75 3.9
2017-Nov-22 21:56N 29°31' W 094°53'3 6.0
2017-Nov-22 21:31N 29°33' W 094°55'3 6.0
2017-Nov-22 21:00N 29°36' W 094°57'3 6.1
2017-Nov-22 20:31N 29°39' W 094°58'3 6.4
2017-Nov-22 20:00N 29°42' W 094°60'3 5.3
2017-Nov-22 19:29N 29°44' W 095°02'  
2017-Nov-17 21:35N 29°46' W 095°04'1 5.8
2017-Nov-17 21:30N 29°46' W 095°05'0 0.0
2017-Nov-17 12:36N 29°46' W 095°05'1 0.1
2017-Nov-17 02:18N 29°46' W 095°04'0 0.0
2017-Nov-17 02:00N 29°46' W 095°04'0 0.0
2017-Nov-16 02:31N 29°46' W 095°04'0 0.8
2017-Nov-16 02:29N 29°46' W 095°04'0 0.0
2017-Nov-15 21:36N 29°46' W 095°04'0 0.0
2017-Nov-15 11:20N 29°46' W 095°04'0 0.0
2017-Nov-15 10:14N 29°46' W 095°04'0 0.0
2017-Nov-15 09:08N 29°46' W 095°04'0 0.0
2017-Nov-15 08:59N 29°46' W 095°04'0 0.0
2017-Nov-15 07:23N 29°46' W 095°04'0 0.0
2017-Nov-15 05:20N 29°46' W 095°04'0 0.0
2017-Nov-15 04:23N 29°46' W 095°04'0 0.0
2017-Nov-15 03:32N 29°46' W 095°04'0 0.0
2017-Nov-15 03:05N 29°46' W 095°04'0 0.0
2017-Nov-15 02:56N 29°46' W 095°04'0 0.0
2017-Nov-15 02:14N 29°46' W 095°04'0 0.0
2017-Nov-14 18:40N 29°46' W 095°04'0 0.7
2017-Nov-14 17:57N 29°46' W 095°05'1 0.1
2017-Nov-14 10:48N 29°46' W 095°04'0 0.0
2017-Nov-14 10:25N 29°46' W 095°04'0 0.0
2017-Nov-14 09:30N 29°46' W 095°04'0 0.0
2017-Nov-14 08:54N 29°46' W 095°04'0 0.0
2017-Nov-14 08:16N 29°46' W 095°04'0 0.0
2017-Nov-14 07:55N 29°46' W 095°04'0 0.0
2017-Nov-14 07:29N 29°46' W 095°04'0 0.0
2017-Nov-14 06:52N 29°46' W 095°04'0 0.0
2017-Nov-14 06:26N 29°46' W 095°04'0 0.0
2017-Nov-14 05:03N 29°46' W 095°04'0 0.0
2017-Nov-14 04:59N 29°46' W 095°04'0 0.0
2017-Nov-14 04:28N 29°46' W 095°04'0 0.0
2017-Nov-14 03:53N 29°46' W 095°04'  

Dump ship's entire track history